Tropical Cyclones
[Index]
Season 2017-2018 Tropical Cyclone HOLA Track Map
Season 2017-2018 Summaries: [BoM-AU] [JTWC-AU] [JTWC-SIO] [JTWC-SPAC] [JTWC-SH]
<<- Previous TC | JTWC 2017-2018 Season | Next TC ->>

click for intensity scale information  Lat/long Grid: Show Hide

 Date Labels: Show Hide

Joint Typhoon Warning Centre Cyclone Data

Name: HOLA

05 Mar 2018 06:00 UTC to 12 Mar 2018 00:00 UTC

    date/time    lat    long     hPa   cat  kts
2018-03-05 06   16.0   171.9    1004         25          
2018-03-05 12   15.8   171.6    1001         30          
2018-03-05 18   15.6   171.2    1001         30          
2018-03-06 00   15.4   170.6    1001         30          
2018-03-06 06   15.4   170.0     999         35          
2018-03-06 12   15.9   169.2     996    1    40          
2018-03-06 18   16.0   168.3     993    1    45          
2018-03-07 00   15.8   167.5     992    1    50          
2018-03-07 06   16.1   167.1     986    2    60          
2018-03-07 06   16.1   167.1     986    2    60          
2018-03-07 12   16.6   166.6     978    2    70          
2018-03-07 12   16.6   166.6     978    2    70          
2018-03-07 12   16.6   166.6     978    2    70          
2018-03-07 18   16.9   166.2     962    3    90          
2018-03-07 18   16.9   166.2     962    3    90          
2018-03-07 18   16.9   166.2     962    3    90          
2018-03-08 00   17.1   165.7     950    4   105          
2018-03-08 00   17.1   165.7     950    4   105          
2018-03-08 00   17.1   165.7     950    4   105          
2018-03-08 06   17.4   165.4     952    4   100          
2018-03-08 06   17.4   165.4     952    4   100          
2018-03-08 06   17.4   165.4     952    4   100          
2018-03-08 12   17.7   165.2     954    4   100          
2018-03-08 12   17.7   165.2     954    4   100          
2018-03-08 12   17.7   165.2     954    4   100          
2018-03-08 18   17.8   165.2     961    3    90          
2018-03-08 18   17.8   165.2     961    3    90          
2018-03-08 18   17.8   165.2     961    3    90          
2018-03-09 00   18.0   165.4     970    3    80          
2018-03-09 00   18.0   165.4     970    3    80          
2018-03-09 00   18.0   165.4     970    3    80          
2018-03-09 06   18.6   166.1     972    3    75          
2018-03-09 06   18.6   166.1     972    3    75          
2018-03-09 06   18.6   166.1     972    3    75          
2018-03-09 12   19.5   167.0     967    3    85          
2018-03-09 12   19.5   167.0     967    3    85          
2018-03-09 12   19.5   167.0     967    3    85          
2018-03-09 18   20.4   168.0     962    3    90          
2018-03-09 18   20.4   168.0     962    3    90          
2018-03-09 18   20.4   168.0     962    3    90          
2018-03-10 00   21.3   169.1     969    3    85          
2018-03-10 00   21.3   169.1     969    3    85          
2018-03-10 00   21.3   169.1     969    3    85          
2018-03-10 06   23.1   170.9     978    2    70          
2018-03-10 06   23.1   170.9     978    2    70          
2018-03-10 06   23.1   170.9     978    2    70          
2018-03-10 12   25.4   172.4     980    2    60          
2018-03-10 12   25.4   172.4     980    2    60          
2018-03-10 18   27.3   173.0     987    1    50          
2018-03-10 18   27.3   173.0     987    1    50          
2018-03-11 00   28.7   173.3     987    1    45          
2018-03-11 06   29.3   173.3     989    1    40          
2018-03-11 12   29.5   173.6     990         35          
2018-03-11 18   30.0   174.3     996         30          
2018-03-12 00   31.4   176.0    1000         30          
Winds are 1-min average.

Tropical cyclone tracks developed by Michael Bath using data from the Joint Typhoon Warning Centre Best Tracks and Google Maps.


Document: tropical_cyclone_hola.htm
Updated: 17 June 2020
[Australian Severe Weather index] [Copyright Notice] [Email Contacts] [Search This Site] [Privacy Policy]


Main Index Home Page Stock Weather Photos Extreme Storms Discussion Storm News and Storm Chasing Reports Tropical Cyclones / Hurricanes / Typhoons Weather Data and Links Wild Fires / Bushfires Weather Observation Techniques Weather Picture Catalogue Tornado Pictures and Reports Stock Video Footage and DVDs for sale